Time;durP1;ratioP1;P1;durP2;ratioP2;P2;SDS_P1;SDS_P2;PMS_P1;PMS_P2;Temp;Humidity;BMP_temperature;BMP_pressure;BME280_temperature;BME280_humidity;BME280_pressure;Samples;Min_cycle;Max_cycle;Signal;HPM_P1;HPM_P2
2021/11/09 00:01:23;;;;;;;12.73;3.30;;;;;;;12.21;100.00;101065.88;5033690;28;20391;-81
2021/11/09 00:03:57;;;;;;;22.83;3.25;;;;;;;12.24;100.00;101078.16;5033882;28;20032;-82
2021/11/09 00:06:25;;;;;;;26.85;4.32;;;;;;;12.17;100.00;101066.38;5018626;28;20084;-81
2021/11/09 00:09:04;;;;;;;18.48;3.80;;;;;;;12.22;100.00;101072.91;5033865;28;20071;-81
2021/11/09 00:11:30;;;;;;;17.35;3.10;;;;;;;12.18;100.00;101063.53;5050375;28;20106;-80
2021/11/09 00:13:56;;;;;;;17.42;3.25;;;;;;;12.14;100.00;101056.81;5050036;28;20470;-81
2021/11/09 00:16:21;;;;;;;10.43;2.33;;;;;;;12.17;100.00;101059.16;5050043;28;20032;-81
2021/11/09 00:18:48;;;;;;;20.13;4.05;;;;;;;12.18;100.00;101060.84;5033727;28;20089;-81
2021/11/09 00:21:15;;;;;;;23.13;4.13;;;;;;;12.17;100.00;101056.47;5017090;28;20390;-81
2021/11/09 00:23:41;;;;;;;17.30;3.40;;;;;;;12.19;100.00;101067.91;5017181;28;20045;-81
2021/11/09 00:26:07;;;;;;;13.02;2.70;;;;;;;12.18;100.00;101054.59;5017033;28;20033;-81
2021/11/09 00:28:33;;;;;;;18.90;4.05;;;;;;;12.14;100.00;101043.31;5050005;28;20032;-81
2021/11/09 00:30:59;;;;;;;15.07;2.33;;;;;;;12.18;100.00;101046.53;5033710;28;20032;-81
2021/11/09 00:33:24;;;;;;;11.70;2.60;;;;;;;12.17;100.00;101045.69;5033361;28;20040;-80
2021/11/09 00:35:50;;;;;;;13.98;3.35;;;;;;;12.07;100.00;101028.91;5050198;28;20389;-80
2021/11/09 00:38:16;;;;;;;11.00;2.72;;;;;;;12.16;100.00;101044.00;5049989;28;20032;-82
2021/11/09 00:40:43;;;;;;;12.68;2.55;;;;;;;12.12;100.00;101033.75;5033376;28;20036;-81
2021/11/09 00:43:11;;;;;;;12.88;3.92;;;;;;;12.16;100.00;101048.56;5016858;28;20036;-82
2021/11/09 00:45:37;;;;;;;11.27;3.03;;;;;;;12.02;100.00;101026.75;5017153;28;20124;-81
2021/11/09 00:48:04;;;;;;;10.80;2.45;;;;;;;12.14;100.00;101046.03;5050012;28;20131;-83
2021/11/09 00:50:30;;;;;;;17.80;3.28;;;;;;;12.15;100.00;101045.03;5033352;28;20110;-82
2021/11/09 00:52:56;;;;;;;16.10;3.15;;;;;;;12.09;100.00;101035.78;5049891;28;20037;-83
2021/11/09 00:55:23;;;;;;;13.57;3.15;;;;;;;12.09;100.00;101032.25;5050608;28;20033;-81
2021/11/09 00:57:49;;;;;;;8.80;2.30;;;;;;;12.13;100.00;101036.28;5049559;28;20107;-80
2021/11/09 01:00:19;;;;;;;15.43;4.07;;;;;;;12.15;100.00;101036.94;5016982;28;20124;-83
2021/11/09 01:02:46;;;;;;;9.07;2.42;;;;;;;12.13;100.00;101032.75;5033384;28;20025;-83
2021/11/09 01:05:12;;;;;;;14.48;2.75;;;;;;;12.07;100.00;101021.66;5049570;28;20036;-83
2021/11/09 01:07:38;;;;;;;19.05;3.08;;;;;;;12.13;100.00;101020.09;5016822;28;20040;-83
2021/11/09 01:10:07;;;;;;;10.00;2.38;;;;;;;12.13;100.00;101020.09;5049608;28;20094;-84
2021/11/09 01:12:34;;;;;;;9.05;1.73;;;;;;;12.12;100.00;101018.44;5049700;28;20025;-83
2021/11/09 01:15:00;;;;;;;15.20;3.72;;;;;;;12.07;100.00;101023.53;5032943;28;20021;-83
2021/11/09 01:17:26;;;;;;;11.50;1.92;;;;;;;12.10;100.00;101015.06;5016610;28;20606;-82
2021/11/09 01:19:52;;;;;;;6.00;1.90;;;;;;;12.09;100.00;101024.16;5032822;28;20048;-82
2021/11/09 01:22:18;;;;;;;9.23;2.70;;;;;;;12.07;100.00;101015.44;5050939;28;20470;-82
2021/11/09 01:24:43;;;;;;;8.05;2.15;;;;;;;12.08;100.00;101015.22;5032905;28;20036;-85
2021/11/09 01:27:09;;;;;;;13.45;2.90;;;;;;;12.11;100.00;101016.72;5032993;28;20056;-83
2021/11/09 01:29:35;;;;;;;8.73;2.53;;;;;;;12.12;100.00;101006.78;5049109;28;20033;-82
2021/11/09 01:32:00;;;;;;;12.18;1.90;;;;;;;12.13;100.00;101011.19;5034393;28;20025;-82
2021/11/09 01:34:26;;;;;;;4.75;1.48;;;;;;;12.12;100.00;101013.03;5052893;28;20031;-85
2021/11/09 01:36:53;;;;;;;8.18;2.40;;;;;;;12.13;100.00;101008.47;5036169;28;20036;-82
2021/11/09 01:39:19;;;;;;;7.25;1.70;;;;;;;12.10;100.00;101004.28;5052670;28;20025;-82
2021/11/09 01:41:45;;;;;;;4.93;1.48;;;;;;;12.01;100.00;100987.34;5036155;28;20060;-81
2021/11/09 01:44:11;;;;;;;11.60;2.17;;;;;;;12.13;100.00;101000.41;5052847;28;20098;-82
2021/11/09 01:46:37;;;;;;;14.05;2.80;;;;;;;12.16;100.00;101005.41;5036404;28;20036;-82
2021/11/09 01:49:04;;;;;;;20.63;2.97;;;;;;;12.16;100.00;101005.41;5052901;28;20104;-81
2021/11/09 01:51:30;;;;;;;8.30;2.10;;;;;;;12.12;100.00;100993.31;5035893;28;20033;-83
2021/11/09 01:53:56;;;;;;;12.25;2.67;;;;;;;12.16;100.00;101008.94;5052549;28;20025;-80
2021/11/09 01:56:26;;;;;;;5.95;1.23;;;;;;;12.17;100.00;101002.56;5019911;28;20390;-82
2021/11/09 01:58:52;;;;;;;6.32;1.60;;;;;;;12.15;100.00;100991.09;5053794;28;20059;-81
2021/11/09 02:01:19;;;;;;;8.88;1.92;;;;;;;12.18;100.00;100998.00;5036099;28;20080;-81
2021/11/09 02:03:47;;;;;;;11.25;2.13;;;;;;;12.17;100.00;101002.56;5052698;28;20033;-81
2021/11/09 02:06:13;;;;;;;7.15;1.40;;;;;;;12.07;100.00;100983.91;5035760;28;20025;-81
2021/11/09 02:08:40;;;;;;;5.70;1.40;;;;;;;12.17;100.00;100996.31;5036156;28;20060;-81
2021/11/09 02:11:07;;;;;;;6.38;1.58;;;;;;;12.19;100.00;101005.88;5019429;28;20025;-83
2021/11/09 02:13:33;;;;;;;9.52;2.33;;;;;;;12.18;100.00;100998.00;5019059;28;20025;-80
2021/11/09 02:15:59;;;;;;;5.90;1.50;;;;;;;12.08;100.00;100984.75;5051992;28;20363;-80
2021/11/09 02:18:26;;;;;;;6.30;1.13;;;;;;;12.17;100.00;100988.22;5035877;28;20120;-81
2021/11/09 02:20:59;;;;;;;2.70;0.90;;;;;;;12.20;100.00;100983.31;5019139;28;20025;-81
2021/11/09 02:23:27;;;;;;;5.28;1.20;;;;;;;12.21;100.00;100984.16;5035770;28;20032;-81
2021/11/09 02:25:52;;;;;;;4.05;1.20;;;;;;;12.20;100.00;100983.31;5035575;28;20128;-82
2021/11/09 02:28:18;;;;;;;2.53;0.85;;;;;;;12.21;100.00;100989.53;5019277;28;20566;-81
2021/11/09 02:30:45;;;;;;;5.15;0.60;;;;;;;12.19;100.00;100987.00;5035536;28;20036;-83
2021/11/09 02:33:11;;;;;;;4.53;0.90;;;;;;;12.19;100.00;100984.31;5051796;28;20382;-82
2021/11/09 02:35:37;;;;;;;3.67;1.10;;;;;;;12.14;100.00;100978.63;5035610;28;20025;-81
2021/11/09 02:38:04;;;;;;;4.40;1.00;;;;;;;12.20;100.00;100987.84;5051873;28;20025;-82
2021/11/09 02:40:30;;;;;;;4.45;0.93;;;;;;;12.20;100.00;100982.47;5018943;28;20036;-81
2021/11/09 02:43:04;;;;;;;1.88;0.75;;;;;;;12.21;100.00;100984.16;5051610;28;20127;-82
2021/11/09 02:45:41;;;;;;;4.63;1.05;;;;;;;12.14;100.00;100975.94;5052037;28;20055;-82
2021/11/09 02:48:12;;;;;;;3.90;0.93;;;;;;;12.23;100.00;100987.50;5035320;28;20055;-83
2021/11/09 02:50:44;;;;;;;3.55;0.82;;;;;;;12.22;100.00;100981.25;5035968;28;20060;-82
2021/11/09 02:53:27;;;;;;;3.05;0.60;;;;;;;12.23;100.00;100979.44;5051324;28;20482;-83
2021/11/09 02:56:01;;;;;;;1.08;0.57;;;;;;;12.21;100.00;100974.19;5051523;28;20048;-82
2021/11/09 03:03:40;;;;;;;0.90;0.50;;;;;;;12.23;100.00;100979.44;5036814;28;20044;-82
2021/11/09 03:08:42;;;;;;;3.67;0.75;;;;;;;12.23;100.00;100980.25;5051119;28;20105;-82
2021/11/09 03:11:08;;;;;;;1.45;0.60;;;;;;;12.27;100.00;100980.72;5036232;28;20040;-82
2021/11/09 03:13:35;;;;;;;2.80;0.80;;;;;;;12.17;100.00;100962.13;5051283;28;20036;-83
2021/11/09 03:16:06;;;;;;;1.85;0.70;;;;;;;12.28;100.00;100985.13;5018583;28;20037;-82
2021/11/09 03:18:38;;;;;;;0.43;0.35;;;;;;;12.29;100.00;100989.47;5035423;28;20044;-82
2021/11/09 03:40:13;;;;;;;0.40;0.40;;;;;;;12.31;100.00;100988.28;5050588;28;20372;-83
2021/11/09 03:45:30;;;;;;;0.40;0.40;;;;;;;12.29;100.00;100976.00;5051055;28;20106;-83
2021/11/09 03:48:03;;;;;;;0.40;0.40;;;;;;;12.22;100.00;100975.88;5034704;28;20029;-83
2021/11/09 03:50:29;;;;;;;0.30;0.30;;;;;;;12.29;100.00;100976.00;5018529;28;20021;-83
2021/11/09 03:53:00;;;;;;;0.40;0.40;;;;;;;12.34;100.00;100994.34;5050409;28;20037;-83
2021/11/09 03:58:10;;;;;;;0.40;0.40;;;;;;;12.35;100.00;100991.44;5035003;28;20071;-83
2021/11/09 04:05:48;;;;;;;0.95;0.57;;;;;;;12.35;100.00;100988.75;5052052;28;20032;-85
2021/11/09 04:14:08;;;;;;;1.13;0.63;;;;;;;12.38;100.00;100991.06;5036106;28;20129;-83
2021/11/09 04:32:43;;;;;;;1.10;0.70;;;;;;;12.44;100.00;101006.53;5035257;28;20447;-83
2021/11/09 05:10:06;;;;;;;0.57;0.40;;;;;;;12.35;100.00;101034.59;5039651;28;20064;-83
2021/11/09 05:12:31;;;;;;;0.95;0.63;;;;;;;12.27;100.00;101026.56;5053559;28;20020;-83
2021/11/09 05:14:58;;;;;;;1.75;0.70;;;;;;;12.31;100.00;101042.19;5037161;28;20478;-84
2021/11/09 05:17:25;;;;;;;1.50;0.57;;;;;;;12.25;100.00;101039.38;5020528;28;20048;-83
2021/11/09 05:19:50;;;;;;;1.10;0.55;;;;;;;12.26;100.00;101051.84;5036818;28;20036;-83
2021/11/09 05:22:16;;;;;;;0.88;0.40;;;;;;;12.20;100.00;101050.72;5036836;28;20391;-83
2021/11/09 05:24:43;;;;;;;0.30;0.30;;;;;;;12.21;100.00;101056.94;5052904;28;20453;-87
2021/11/09 05:27:11;;;;;;;0.75;0.35;;;;;;;12.15;100.00;101069.28;5037099;28;20052;-84
2021/11/09 05:29:37;;;;;;;0.45;0.45;;;;;;;12.12;100.00;101055.31;5036836;28;20037;-83
2021/11/09 05:32:03;;;;;;;0.30;0.30;;;;;;;12.12;100.00;101064.25;5053022;28;20029;-84
2021/11/09 05:34:30;;;;;;;0.20;0.20;;;;;;;12.06;100.00;101067.63;5036112;28;20538;-85
2021/11/09 05:36:57;;;;;;;0.30;0.30;;;;;;;11.97;100.00;101066.03;5052920;28;20158;-84
2021/11/09 05:39:31;;;;;;;0.20;0.20;;;;;;;11.91;100.00;101077.50;5053047;28;20605;-85
2021/11/09 05:41:57;;;;;;;0.20;0.20;;;;;;;11.82;100.00;101087.44;5053452;28;20033;-85
2021/11/09 05:44:23;;;;;;;0.30;0.30;;;;;;;11.73;100.00;101073.19;5053088;28;20377;-85
2021/11/09 05:46:48;;;;;;;0.30;0.30;;;;;;;11.68;100.00;101080.94;5052847;28;20033;-87
2021/11/09 05:49:16;;;;;;;0.40;0.40;;;;;;;11.56;100.00;101076.94;5036461;28;20126;-84
2021/11/09 05:51:42;;;;;;;0.20;0.20;;;;;;;11.52;100.00;101086.41;5052858;28;20509;-84
2021/11/09 05:54:10;;;;;;;0.20;0.20;;;;;;;11.44;100.00;101089.97;5036208;28;20029;-84
2021/11/09 05:56:36;;;;;;;0.20;0.20;;;;;;;11.42;100.00;101103.59;5052599;28;20021;-86
2021/11/09 05:59:02;;;;;;;0.30;0.30;;;;;;;11.39;100.00;101095.03;5052772;28;20036;-86
2021/11/09 06:01:27;;;;;;;0.30;0.30;;;;;;;11.35;100.00;101108.00;5035776;28;20075;-85
2021/11/09 06:03:53;;;;;;;0.30;0.30;;;;;;;11.31;100.00;101106.66;5035940;28;20036;-84
2021/11/09 06:06:19;;;;;;;0.43;0.43;;;;;;;11.28;100.00;101098.94;5035875;28;20036;-86
2021/11/09 06:08:47;;;;;;;0.30;0.30;;;;;;;11.28;100.00;101109.69;5036176;28;20120;-84
2021/11/09 06:11:13;;;;;;;0.30;0.30;;;;;;;11.23;100.00;101098.59;5052525;28;20491;-84
2021/11/09 06:13:38;;;;;;;0.20;0.20;;;;;;;11.18;100.00;101098.28;5035644;28;20040;-87
2021/11/09 06:16:04;;;;;;;0.20;0.20;;;;;;;11.18;100.00;101112.56;5052018;28;20056;-84
2021/11/09 06:18:30;;;;;;;0.63;0.55;;;;;;;11.05;100.00;101108.72;5035638;28;20561;-84
2021/11/09 06:20:56;;;;;;;0.30;0.30;;;;;;;10.91;100.00;101121.88;5035765;28;20028;-85
2021/11/09 06:23:21;;;;;;;1.65;0.88;;;;;;;10.85;100.00;101127.94;5052311;28;20487;-84
2021/11/09 06:25:48;;;;;;;1.30;0.50;;;;;;;10.79;100.00;101128.56;5035617;28;20039;-84
2021/11/09 06:28:16;;;;;;;0.30;0.30;;;;;;;10.77;100.00;101138.69;5035593;28;20055;-83
2021/11/09 06:30:42;;;;;;;0.45;0.45;;;;;;;10.68;100.00;101140.50;5051596;28;20445;-87
2021/11/09 06:33:08;;;;;;;0.30;0.30;;;;;;;10.57;100.00;101133.63;5019224;28;20039;-84
2021/11/09 06:35:33;;;;;;;0.30;0.30;;;;;;;10.61;100.00;101141.34;5053537;28;20037;-83
2021/11/09 06:37:59;;;;;;;0.77;0.43;;;;;;;10.65;100.00;101150.78;5035645;28;20462;-83
2021/11/09 06:40:25;;;;;;;0.30;0.30;;;;;;;10.60;100.00;101135.13;5035298;28;20032;-84
2021/11/09 06:42:51;;;;;;;0.50;0.50;;;;;;;10.64;100.00;101151.75;5035426;28;20037;-85
2021/11/09 06:45:17;;;;;;;5.90;0.60;;;;;;;10.64;100.00;101151.75;5051454;28;20052;-83
2021/11/09 06:47:44;;;;;;;1.25;0.77;;;;;;;10.67;100.00;101164.91;5051890;28;20040;-83
2021/11/09 06:50:10;;;;;;;3.42;0.95;;;;;;;10.66;100.00;101155.97;5052858;28;20039;-84
2021/11/09 06:52:36;;;;;;;2.33;1.50;;;;;;;10.65;100.00;101159.69;5035008;28;20025;-84
2021/11/09 06:55:03;;;;;;;3.33;0.63;;;;;;;10.61;100.00;101146.72;5051489;28;20441;-83
2021/11/09 06:57:29;;;;;;;0.30;0.30;;;;;;;10.68;100.00;101164.72;5034950;28;20036;-86
2021/11/09 06:59:55;;;;;;;9.18;0.55;;;;;;;10.64;100.00;101162.53;5034963;28;20039;-84
2021/11/09 07:02:20;;;;;;;2.05;1.05;;;;;;;10.63;100.00;101167.06;5051428;28;20029;-83
2021/11/09 07:04:46;;;;;;;0.60;0.50;;;;;;;10.62;100.00;101169.94;5051375;28;20021;-84
2021/11/09 07:07:12;;;;;;;0.77;0.43;;;;;;;10.62;100.00;101173.47;5034934;28;20036;-83
2021/11/09 07:09:37;;;;;;;0.30;0.30;;;;;;;10.59;100.00;101170.28;5035129;28;20035;-84
2021/11/09 07:12:03;;;;;;;1.13;0.40;;;;;;;10.52;100.00;101183.53;5018352;28;20036;-83
2021/11/09 07:14:29;;;;;;;0.85;0.50;;;;;;;10.50;100.00;101185.53;5018331;28;20032;-84
2021/11/09 07:16:56;;;;;;;1.05;0.80;;;;;;;10.50;100.00;101190.91;5050874;28;20044;-84
2021/11/09 07:19:22;;;;;;;0.35;0.35;;;;;;;10.48;100.00;101195.63;5018426;28;20056;-84
2021/11/09 07:21:49;;;;;;;0.20;0.20;;;;;;;10.49;100.00;101205.38;5034851;28;20064;-83
2021/11/09 07:24:15;;;;;;;0.20;0.20;;;;;;;10.43;100.00;101198.81;5034706;28;20056;-84
2021/11/09 07:26:42;;;;;;;0.30;0.30;;;;;;;10.45;100.00;101207.56;5017994;28;20052;-83
2021/11/09 07:29:08;;;;;;;1.48;0.30;;;;;;;10.44;100.00;101216.59;5033508;28;20037;-83
2021/11/09 07:31:34;;;;;;;0.30;0.30;;;;;;;10.36;100.00;101221.97;5050997;28;20398;-83
2021/11/09 07:34:00;;;;;;;0.22;0.22;;;;;;;10.25;100.00;101223.06;5034271;28;20048;-84
2021/11/09 07:36:26;;;;;;;0.30;0.30;;;;;;;10.20;100.00;101224.56;5034305;28;20124;-84
2021/11/09 07:38:52;;;;;;;0.43;0.30;;;;;;;10.13;100.00;101214.47;5018048;28;20127;-82
2021/11/09 07:41:18;;;;;;;0.50;0.50;;;;;;;10.02;100.00;101211.22;5050681;28;20025;-84
2021/11/09 07:43:44;;;;;;;9.18;1.13;;;;;;;10.05;100.00;101227.00;5033972;28;20043;-87
2021/11/09 07:46:10;;;;;;;1.55;0.55;;;;;;;10.02;100.00;101230.84;5051942;28;20222;-83
2021/11/09 07:48:36;;;;;;;0.32;0.32;;;;;;;9.98;100.00;101232.19;5050548;28;20107;-83
2021/11/09 07:51:02;;;;;;;1.05;0.95;;;;;;;9.97;100.00;101227.81;5017701;28;20115;-83
2021/11/09 07:53:34;;;;;;;1.90;1.13;;;;;;;9.94;100.00;101236.19;5050188;28;20025;-85
2021/11/09 07:58:39;;;;;;;0.68;0.68;;;;;;;10.03;100.00;101256.75;5034383;28;20045;-84
2021/11/09 08:01:10;;;;;;;0.90;0.43;;;;;;;10.04;100.00;101253.03;5035322;28;20453;-84
2021/11/09 08:03:45;;;;;;;0.75;0.73;;;;;;;10.08;100.00;101245.47;5034521;28;20382;-84
2021/11/09 08:06:16;;;;;;;2.20;0.73;;;;;;;10.12;100.00;101260.28;5050829;28;20029;-84
2021/11/09 08:11:23;;;;;;;0.40;0.40;;;;;;;10.21;100.00;101269.22;5050502;28;20036;-86
2021/11/09 08:13:49;;;;;;;0.40;0.40;;;;;;;10.28;100.00;101270.31;5033531;28;20102;-84
2021/11/09 08:16:16;;;;;;;0.60;0.60;;;;;;;10.32;100.00;101272.53;5050256;28;20033;-84
2021/11/09 08:18:44;;;;;;;1.75;1.00;;;;;;;10.29;100.00;101267.47;5050027;28;20041;-86
2021/11/09 08:21:11;;;;;;;1.60;0.90;;;;;;;10.28;100.00;101262.25;5033602;28;20039;-84
2021/11/09 08:23:36;;;;;;;3.20;0.98;;;;;;;10.27;100.00;101269.47;5051316;28;20467;-83
2021/11/09 08:26:03;;;;;;;5.75;1.00;;;;;;;10.26;100.00;101258.84;5051338;28;20025;-84
2021/11/09 08:28:29;;;;;;;3.45;1.65;;;;;;;10.37;100.00;101258.56;5049905;28;20029;-84
2021/11/09 08:31:01;;;;;;;1.33;0.73;;;;;;;10.38;100.00;101265.66;5017060;28;20078;-84
2021/11/09 08:33:28;;;;;;;4.13;0.87;;;;;;;10.36;100.00;101275.72;5034117;28;20029;-82
2021/11/09 08:35:56;;;;;;;1.30;1.20;;;;;;;10.33;100.00;101273.34;5033605;28;20128;-82
2021/11/09 08:38:21;;;;;;;0.85;0.85;;;;;;;10.39;100.00;101272.69;5049842;28;20098;-83
2021/11/09 08:40:49;;;;;;;4.95;2.47;;;;;;;10.42;100.00;101282.28;5034818;28;20475;-83
2021/11/09 08:43:18;;;;;;;2.72;2.00;;;;;;;10.42;100.00;101287.66;5053828;28;20029;-82
2021/11/09 08:46:19;;;;;;;3.65;1.98;;;;;;;10.41;100.00;101286.00;5054877;28;20040;-83
2021/11/09 08:48:43;;;;;;;6.77;2.17;;;;;;;10.32;100.00;101288.66;5051883;28;20514;-82
2021/11/09 08:51:11;;;;;;;4.35;2.90;;;;;;;10.32;100.00;101302.09;5038287;28;20451;-82
2021/11/09 08:53:53;;;;;;;1.75;1.48;;;;;;;10.27;100.00;101287.41;5037455;28;20029;-83
2021/11/09 09:06:37;;;;;;;0.60;0.60;;;;;;;10.29;100.00;101306.94;5054006;28;20032;-82
2021/11/09 09:09:03;;;;;;;2.00;0.98;;;;;;;10.24;100.00;101306.53;5053203;28;20029;-83
2021/11/09 09:11:33;;;;;;;0.45;0.45;;;;;;;10.18;100.00;101302.63;5053479;28;20453;-82
2021/11/09 09:14:00;;;;;;;0.38;0.38;;;;;;;10.24;100.00;101304.72;5020197;28;20037;-82
2021/11/09 09:16:27;;;;;;;0.40;0.40;;;;;;;10.32;100.00;101325.44;5053604;28;20086;-82
2021/11/09 09:18:54;;;;;;;3.70;1.45;;;;;;;10.33;100.00;101322.56;5020330;28;20037;-83
2021/11/09 09:21:37;;;;;;;5.47;1.40;;;;;;;10.39;100.00;101317.56;5036995;28;20032;-82
2021/11/09 09:24:11;;;;;;;9.82;4.75;;;;;;;10.51;100.00;101318.97;5053436;28;20087;-82
2021/11/09 09:31:51;;;;;;;3.47;2.10;;;;;;;10.73;100.00;101315.69;5036753;28;20445;-83
2021/11/09 09:55:59;;;;;;;8.10;2.33;;;;;;;11.09;100.00;101322.69;5036650;28;20029;-82
2021/11/09 09:58:25;;;;;;;5.57;1.63;;;;;;;10.92;100.00;101316.41;5052681;28;20025;-85
2021/11/09 10:00:51;;;;;;;3.15;1.58;;;;;;;11.08;100.00;101342.50;5036036;28;20493;-82
2021/11/09 10:03:17;;;;;;;1.38;0.80;;;;;;;11.09;100.00;101339.66;5052510;28;20029;-82
2021/11/09 10:05:43;;;;;;;3.80;1.10;;;;;;;11.09;100.00;101341.53;5052675;28;20564;-81
2021/11/09 10:08:18;;;;;;;7.95;1.00;;;;;;;11.14;100.00;101341.84;5035817;28;20155;-83
2021/11/09 10:10:46;;;;;;;4.88;0.68;;;;;;;11.24;100.00;101334.47;5052513;28;20055;-83
2021/11/09 10:13:20;;;;;;;7.38;1.08;;;;;;;11.41;100.00;101338.88;5035830;28;20029;-83
2021/11/09 10:15:54;;;;;;;0.90;0.70;;;;;;;11.56;100.00;101332.81;5052018;28;20032;-83
2021/11/09 10:18:23;;;;;;;2.28;1.13;;;;;;;11.59;100.00;101332.47;5036231;28;20462;-83
2021/11/09 10:20:58;;;;;;;8.15;1.42;;;;;;;11.63;100.00;101331.97;5035877;28;20084;-82
2021/11/09 10:23:29;;;;;;;10.40;1.23;;;;;;;11.66;100.00;101326.25;5019336;28;20127;-82
2021/11/09 10:26:01;;;;;;;0.77;0.55;;;;;;;11.62;100.00;101329.47;5019077;28;20032;-83
2021/11/09 10:28:27;;;;;;;4.13;0.68;;;;;;;11.53;100.00;101330.47;5019992;28;20102;-83
2021/11/09 10:30:57;;;;;;;4.57;0.90;;;;;;;11.59;100.00;101333.34;5051787;28;20102;-83
2021/11/09 10:33:24;;;;;;;6.60;1.00;;;;;;;11.67;100.00;101348.66;5052153;28;20171;-83
2021/11/09 10:35:52;;;;;;;5.78;1.08;;;;;;;11.76;100.00;101358.41;5052103;28;20379;-83
2021/11/09 10:38:18;;;;;;;12.20;1.15;;;;;;;11.83;100.00;101353.19;5051959;28;20029;-82
2021/11/09 10:40:48;;;;;;;15.90;1.65;;;;;;;12.07;100.00;101360.44;5035056;28;20258;-83
2021/11/09 10:43:16;;;;;;;2.50;0.95;;;;;;;12.21;100.00;101359.72;5035861;28;20041;-82
2021/11/09 10:45:42;;;;;;;5.82;1.02;;;;;;;12.52;100.00;101359.81;5035276;28;20032;-84
2021/11/09 10:48:12;;;;;;;2.90;1.20;;;;;;;12.83;100.00;101358.16;5035456;28;20132;-82
2021/11/09 10:50:44;;;;;;;3.10;1.05;;;;;;;13.49;98.82;101364.03;5034998;28;20135;-83
2021/11/09 10:53:29;;;;;;;6.40;1.23;;;;;;;14.00;96.37;101362.44;5051571;28;20539;-83
2021/11/09 11:06:32;;;;;;;3.50;1.15;;;;;;;14.03;94.34;101345.84;5051609;28;20082;-83
2021/11/09 11:09:10;;;;;;;10.30;1.63;;;;;;;13.64;96.21;101343.31;5018481;28;20041;-82
2021/11/09 11:12:03;;;;;;;8.23;1.50;;;;;;;13.45;97.30;101343.84;5051180;28;20033;-82
2021/11/09 11:14:30;;;;;;;11.60;1.83;;;;;;;12.99;98.38;101336.47;5019428;28;20032;-83
2021/11/09 11:17:02;;;;;;;9.38;1.55;;;;;;;12.71;99.11;101346.94;5018124;28;20033;-83
2021/11/09 11:19:33;;;;;;;10.07;1.27;;;;;;;12.54;99.87;101352.41;5051202;28;20073;-84
2021/11/09 11:22:01;;;;;;;10.13;1.55;;;;;;;12.46;100.00;101357.81;5051282;28;20041;-82
2021/11/09 11:24:26;;;;;;;12.98;1.85;;;;;;;12.30;100.00;101342.53;5050791;28;20709;-82
2021/11/09 11:26:54;;;;;;;10.60;1.58;;;;;;;12.41;100.00;101348.53;5050782;28;20057;-82
2021/11/09 11:29:23;;;;;;;23.08;2.53;;;;;;;12.46;100.00;101340.78;5034183;28;20444;-83
2021/11/09 11:31:49;;;;;;;8.60;2.03;;;;;;;12.36;100.00;101356.31;5034464;28;20074;-82
2021/11/09 11:34:16;;;;;;;9.20;1.85;;;;;;;12.35;100.00;101342.00;5050873;28;20028;-82
2021/11/09 11:36:43;;;;;;;11.10;1.80;;;;;;;12.60;100.00;101326.56;5034305;28;20033;-84
2021/11/09 11:39:10;;;;;;;12.30;1.95;;;;;;;13.26;98.50;101334.28;5017746;28;20264;-81
2021/11/09 11:41:39;;;;;;;15.88;2.42;;;;;;;13.50;97.89;101336.88;5050323;28;20100;-83
2021/11/09 11:44:07;;;;;;;14.35;2.70;;;;;;;13.55;97.00;101337.16;5050454;28;20036;-83
2021/11/09 11:46:32;;;;;;;9.65;2.03;;;;;;;13.67;96.38;101350.22;5050670;28;20482;-83
2021/11/09 11:49:03;;;;;;;12.55;2.10;;;;;;;13.74;95.81;101349.31;5051956;28;20033;-82
2021/11/09 11:51:37;;;;;;;14.20;3.95;;;;;;;13.83;95.41;101348.22;5034086;28;20033;-83
2021/11/09 11:54:05;;;;;;;16.20;3.03;;;;;;;14.94;91.62;101324.81;5017595;28;20033;-81
2021/11/09 11:56:43;;;;;;;17.05;3.17;;;;;;;15.39;90.52;101338.22;5034152;28;20119;-83
2021/11/09 11:59:18;;;;;;;24.60;4.10;;;;;;;14.98;91.22;101346.09;5050326;28;20033;-82
2021/11/09 12:01:45;;;;;;;12.80;2.78;;;;;;;14.18;93.90;101347.72;5051462;28;20025;-83
2021/11/09 12:04:37;;;;;;;11.93;2.63;;;;;;;13.62;96.07;101343.50;5033633;28;20064;-82
2021/11/09 12:07:11;;;;;;;15.50;3.20;;;;;;;13.62;97.63;101348.91;5050070;28;20029;-83
2021/11/09 12:09:42;;;;;;;23.77;4.75;;;;;;;14.01;96.96;101358.69;5017355;28;20051;-84
2021/11/09 12:12:17;;;;;;;15.95;3.03;;;;;;;14.26;96.16;101353.03;5033484;28;20035;-83
2021/11/09 12:14:47;;;;;;;17.08;3.90;;;;;;;14.61;94.40;101340.69;5050161;28;20032;-82
2021/11/09 12:17:35;;;;;;;16.80;3.45;;;;;;;14.20;95.58;101340.25;5049758;28;20041;-82
2021/11/09 12:20:39;;;;;;;24.88;3.30;;;;;;;13.70;96.78;101356.09;5051281;28;20542;-84
2021/11/09 12:23:15;;;;;;;22.88;5.60;;;;;;;13.38;98.17;101349.94;5017203;28;20044;-86
2021/11/09 12:25:41;;;;;;;21.70;5.38;;;;;;;13.17;98.89;101337.03;5017569;28;20467;-81
2021/11/09 12:28:08;;;;;;;16.80;4.32;;;;;;;13.33;98.86;101346.09;5049984;28;20041;-82
2021/11/09 12:30:34;;;;;;;21.35;4.75;;;;;;;13.76;98.36;101331.06;5033451;28;20513;-81
2021/11/09 12:33:10;;;;;;;21.75;3.83;;;;;;;14.14;96.82;101327.50;5050875;28;20064;-82
2021/11/09 12:35:36;;;;;;;16.25;3.70;;;;;;;15.89;91.04;101327.44;5033723;28;20283;-82
2021/11/09 12:38:01;;;;;;;24.77;4.45;;;;;;;16.57;88.19;101330.38;5033473;28;20036;-81
2021/11/09 12:40:30;;;;;;;18.50;3.85;;;;;;;15.76;89.69;101326.28;5050015;28;20029;-82
2021/11/09 12:43:03;;;;;;;25.00;3.92;;;;;;;16.84;86.20;101336.78;5051170;28;20124;-82
2021/11/09 12:45:31;;;;;;;22.37;4.23;;;;;;;18.27;81.53;101337.34;5017162;28;20029;-82
2021/11/09 12:48:09;;;;;;;17.73;2.95;;;;;;;19.21;78.29;101327.78;5049516;28;20025;-82
2021/11/09 12:50:37;;;;;;;19.75;3.42;;;;;;;19.46;78.05;101325.09;5033618;28;20036;-81
2021/11/09 12:53:11;;;;;;;16.70;2.67;;;;;;;19.46;78.17;101321.53;5049640;28;20028;-81
2021/11/09 12:55:41;;;;;;;25.65;5.78;;;;;;;18.72;79.35;101312.09;5016813;28;20055;-81
2021/11/09 12:58:16;;;;;;;19.83;3.17;;;;;;;19.26;76.90;101319.75;5049387;28;20107;-82
2021/11/09 13:00:49;;;;;;;19.85;2.75;;;;;;;18.01;79.51;101316.47;5033378;28;20036;-82
2021/11/09 13:03:26;;;;;;;10.55;3.00;;;;;;;17.34;80.94;101316.44;5033315;28;20032;-81
2021/11/09 13:05:55;;;;;;;21.17;3.60;;;;;;;16.16;85.40;101321.16;5050861;28;20039;-82
2021/11/09 13:08:29;;;;;;;15.45;2.78;;;;;;;15.24;88.17;101319.34;5050743;28;20021;-82
2021/11/09 13:10:56;;;;;;;16.92;3.30;;;;;;;14.52;90.67;101326.38;5049474;28;20037;-80
2021/11/09 13:13:22;;;;;;;22.42;3.63;;;;;;;13.81;93.14;101336.78;5032688;28;20098;-81
2021/11/09 13:15:48;;;;;;;18.85;3.47;;;;;;;13.40;95.33;101328.16;5016745;28;20033;-81
2021/11/09 13:18:18;;;;;;;18.63;2.80;;;;;;;13.18;95.89;101327.94;5049904;28;20087;-82
2021/11/09 13:20:52;;;;;;;28.10;4.63;;;;;;;13.08;96.97;101324.63;5033383;28;20041;-82
2021/11/09 13:23:23;;;;;;;24.08;3.90;;;;;;;13.13;96.73;101313.31;5049482;28;20047;-80
2021/11/09 13:25:55;;;;;;;17.00;3.05;;;;;;;13.17;96.24;101309.22;5017112;28;20083;-80
2021/11/09 13:28:28;;;;;;;24.77;4.40;;;;;;;13.66;94.44;101302.63;5035532;28;20505;-83
2021/11/09 13:31:07;;;;;;;17.85;2.90;;;;;;;13.93;93.34;101306.59;5053107;28;20037;-80
2021/11/09 13:33:37;;;;;;;15.68;2.90;;;;;;;16.29;86.20;101306.00;5052975;28;20098;-82
2021/11/09 13:36:03;;;;;;;17.63;2.75;;;;;;;17.64;81.95;101293.44;5020433;28;20443;-81
2021/11/09 13:38:39;;;;;;;15.68;2.25;;;;;;;18.39;79.12;101297.53;5036623;28;20497;-82
2021/11/09 13:41:17;;;;;;;15.65;2.78;;;;;;;19.27;75.69;101293.34;5019966;28;20422;-81
2021/11/09 13:43:55;;;;;;;14.77;3.03;;;;;;;19.70;73.51;101298.91;5021076;28;20504;-84
2021/11/09 13:46:25;;;;;;;18.13;2.63;;;;;;;19.93;72.93;101294.72;5020172;28;20082;-83
2021/11/09 13:48:54;;;;;;;13.30;3.55;;;;;;;19.91;72.57;101296.84;5036665;28;20060;-83
2021/11/09 13:51:25;;;;;;;15.05;2.50;;;;;;;20.32;73.39;101298.09;5036405;28;20040;-83